sensor_id;sensor_type;location;lat;lon;timestamp;P1;durP1;ratioP1;P2;durP2;ratioP2
37693;SDS011;23531;50.122;8.644;2024-03-08T00:00:04;31.92;;;16.23;;
37693;SDS011;23531;50.122;8.644;2024-03-08T00:02:09;29.25;;;16.80;;
37693;SDS011;23531;50.122;8.644;2024-03-08T00:04:10;26.77;;;15.63;;
37693;SDS011;23531;50.122;8.644;2024-03-08T00:06:12;30.05;;;16.08;;
37693;SDS011;23531;50.122;8.644;2024-03-08T00:08:13;29.13;;;16.48;;
37693;SDS011;23531;50.122;8.644;2024-03-08T00:10:16;30.88;;;16.05;;
37693;SDS011;23531;50.122;8.644;2024-03-08T00:12:18;29.73;;;15.52;;
37693;SDS011;23531;50.122;8.644;2024-03-08T00:14:18;29.65;;;16.52;;
37693;SDS011;23531;50.122;8.644;2024-03-08T00:16:20;31.05;;;16.45;;
37693;SDS011;23531;50.122;8.644;2024-03-08T00:18:23;29.95;;;16.73;;
37693;SDS011;23531;50.122;8.644;2024-03-08T00:20:24;29.88;;;16.05;;
37693;SDS011;23531;50.122;8.644;2024-03-08T00:22:25;30.58;;;15.93;;
37693;SDS011;23531;50.122;8.644;2024-03-08T00:24:26;28.85;;;16.27;;
37693;SDS011;23531;50.122;8.644;2024-03-08T00:26:29;29.50;;;16.40;;
37693;SDS011;23531;50.122;8.644;2024-03-08T00:28:30;32.67;;;16.45;;
37693;SDS011;23531;50.122;8.644;2024-03-08T00:30:32;27.65;;;15.77;;
37693;SDS011;23531;50.122;8.644;2024-03-08T00:32:33;27.52;;;16.58;;
37693;SDS011;23531;50.122;8.644;2024-03-08T00:34:36;36.15;;;18.75;;
37693;SDS011;23531;50.122;8.644;2024-03-08T00:36:37;28.00;;;16.05;;
37693;SDS011;23531;50.122;8.644;2024-03-08T00:38:39;30.23;;;16.23;;
37693;SDS011;23531;50.122;8.644;2024-03-08T00:40:40;28.30;;;16.00;;
37693;SDS011;23531;50.122;8.644;2024-03-08T00:42:43;31.35;;;16.23;;
37693;SDS011;23531;50.122;8.644;2024-03-08T00:44:44;30.48;;;15.43;;
37693;SDS011;23531;50.122;8.644;2024-03-08T00:46:46;31.35;;;16.85;;
37693;SDS011;23531;50.122;8.644;2024-03-08T00:48:47;31.08;;;16.92;;
37693;SDS011;23531;50.122;8.644;2024-03-08T00:50:49;26.50;;;15.73;;
37693;SDS011;23531;50.122;8.644;2024-03-08T00:52:50;31.10;;;16.17;;
37693;SDS011;23531;50.122;8.644;2024-03-08T00:54:51;31.00;;;16.50;;
37693;SDS011;23531;50.122;8.644;2024-03-08T00:56:52;32.70;;;17.25;;
37693;SDS011;23531;50.122;8.644;2024-03-08T00:58:54;32.22;;;15.88;;
37693;SDS011;23531;50.122;8.644;2024-03-08T01:00:55;30.25;;;16.70;;
37693;SDS011;23531;50.122;8.644;2024-03-08T01:02:57;32.67;;;16.67;;
37693;SDS011;23531;50.122;8.644;2024-03-08T01:04:57;29.33;;;16.45;;
37693;SDS011;23531;50.122;8.644;2024-03-08T01:06:59;30.48;;;16.70;;
37693;SDS011;23531;50.122;8.644;2024-03-08T01:09:00;31.67;;;16.42;;
37693;SDS011;23531;50.122;8.644;2024-03-08T01:11:01;29.35;;;15.95;;
37693;SDS011;23531;50.122;8.644;2024-03-08T01:13:03;26.85;;;16.25;;
37693;SDS011;23531;50.122;8.644;2024-03-08T01:15:06;25.90;;;15.15;;
37693;SDS011;23531;50.122;8.644;2024-03-08T01:17:08;28.13;;;15.85;;
37693;SDS011;23531;50.122;8.644;2024-03-08T01:19:09;29.52;;;16.27;;
37693;SDS011;23531;50.122;8.644;2024-03-08T01:21:11;29.15;;;16.00;;
37693;SDS011;23531;50.122;8.644;2024-03-08T01:23:13;31.73;;;16.23;;
37693;SDS011;23531;50.122;8.644;2024-03-08T01:25:14;27.10;;;15.63;;
37693;SDS011;23531;50.122;8.644;2024-03-08T01:27:15;29.98;;;16.40;;
37693;SDS011;23531;50.122;8.644;2024-03-08T01:29:16;30.23;;;16.40;;
37693;SDS011;23531;50.122;8.644;2024-03-08T01:31:19;27.50;;;15.80;;
37693;SDS011;23531;50.122;8.644;2024-03-08T01:33:21;29.20;;;16.67;;
37693;SDS011;23531;50.122;8.644;2024-03-08T01:35:22;28.67;;;16.23;;
37693;SDS011;23531;50.122;8.644;2024-03-08T01:37:24;31.70;;;16.50;;
37693;SDS011;23531;50.122;8.644;2024-03-08T01:39:25;29.15;;;16.30;;
37693;SDS011;23531;50.122;8.644;2024-03-08T01:41:27;28.98;;;16.48;;
37693;SDS011;23531;50.122;8.644;2024-03-08T01:43:29;30.00;;;17.02;;
37693;SDS011;23531;50.122;8.644;2024-03-08T01:45:31;29.27;;;15.70;;
37693;SDS011;23531;50.122;8.644;2024-03-08T01:47:35;33.22;;;17.17;;
37693;SDS011;23531;50.122;8.644;2024-03-08T01:49:38;29.55;;;16.52;;
37693;SDS011;23531;50.122;8.644;2024-03-08T01:51:39;30.17;;;16.23;;
37693;SDS011;23531;50.122;8.644;2024-03-08T01:53:42;29.90;;;16.58;;
37693;SDS011;23531;50.122;8.644;2024-03-08T01:55:46;27.92;;;16.55;;
37693;SDS011;23531;50.122;8.644;2024-03-08T01:57:49;32.15;;;16.65;;
37693;SDS011;23531;50.122;8.644;2024-03-08T01:59:50;31.88;;;16.02;;
37693;SDS011;23531;50.122;8.644;2024-03-08T02:01:54;28.63;;;15.90;;
37693;SDS011;23531;50.122;8.644;2024-03-08T02:03:58;28.73;;;16.02;;
37693;SDS011;23531;50.122;8.644;2024-03-08T02:05:59;29.27;;;16.35;;
37693;SDS011;23531;50.122;8.644;2024-03-08T02:08:00;31.35;;;17.25;;
37693;SDS011;23531;50.122;8.644;2024-03-08T02:10:01;32.30;;;16.70;;
37693;SDS011;23531;50.122;8.644;2024-03-08T02:12:03;29.60;;;16.80;;
37693;SDS011;23531;50.122;8.644;2024-03-08T02:14:04;34.10;;;17.05;;
37693;SDS011;23531;50.122;8.644;2024-03-08T02:16:06;32.20;;;17.90;;
37693;SDS011;23531;50.122;8.644;2024-03-08T02:18:08;31.63;;;17.42;;
37693;SDS011;23531;50.122;8.644;2024-03-08T02:20:11;32.67;;;17.17;;
37693;SDS011;23531;50.122;8.644;2024-03-08T02:22:15;33.75;;;16.92;;
37693;SDS011;23531;50.122;8.644;2024-03-08T02:24:17;29.98;;;15.60;;
37693;SDS011;23531;50.122;8.644;2024-03-08T02:26:18;32.58;;;17.80;;
37693;SDS011;23531;50.122;8.644;2024-03-08T02:28:20;33.40;;;17.55;;
37693;SDS011;23531;50.122;8.644;2024-03-08T02:30:21;33.90;;;18.75;;
37693;SDS011;23531;50.122;8.644;2024-03-08T02:32:22;33.58;;;17.90;;
37693;SDS011;23531;50.122;8.644;2024-03-08T02:34:23;33.40;;;16.90;;
37693;SDS011;23531;50.122;8.644;2024-03-08T02:36:25;30.98;;;16.50;;
37693;SDS011;23531;50.122;8.644;2024-03-08T02:38:28;29.48;;;16.60;;
37693;SDS011;23531;50.122;8.644;2024-03-08T02:40:29;32.67;;;17.90;;
37693;SDS011;23531;50.122;8.644;2024-03-08T02:42:30;34.90;;;17.98;;
37693;SDS011;23531;50.122;8.644;2024-03-08T02:44:32;33.25;;;17.75;;
37693;SDS011;23531;50.122;8.644;2024-03-08T02:46:34;36.63;;;17.92;;
37693;SDS011;23531;50.122;8.644;2024-03-08T02:48:36;28.83;;;16.98;;
37693;SDS011;23531;50.122;8.644;2024-03-08T02:50:37;35.45;;;18.02;;
37693;SDS011;23531;50.122;8.644;2024-03-08T02:52:40;33.30;;;18.08;;
37693;SDS011;23531;50.122;8.644;2024-03-08T02:54:43;32.45;;;18.35;;
37693;SDS011;23531;50.122;8.644;2024-03-08T02:56:43;33.42;;;16.83;;
37693;SDS011;23531;50.122;8.644;2024-03-08T02:58:45;33.33;;;17.23;;
37693;SDS011;23531;50.122;8.644;2024-03-08T03:00:48;33.42;;;18.15;;
37693;SDS011;23531;50.122;8.644;2024-03-08T03:02:50;34.25;;;17.52;;
37693;SDS011;23531;50.122;8.644;2024-03-08T03:04:53;35.13;;;17.92;;
37693;SDS011;23531;50.122;8.644;2024-03-08T03:06:55;33.20;;;18.77;;
37693;SDS011;23531;50.122;8.644;2024-03-08T03:08:58;32.97;;;18.27;;
37693;SDS011;23531;50.122;8.644;2024-03-08T03:11:00;32.80;;;17.85;;
37693;SDS011;23531;50.122;8.644;2024-03-08T03:13:02;32.58;;;17.08;;
37693;SDS011;23531;50.122;8.644;2024-03-08T03:15:04;34.72;;;18.00;;
37693;SDS011;23531;50.122;8.644;2024-03-08T03:17:07;33.53;;;17.90;;
37693;SDS011;23531;50.122;8.644;2024-03-08T03:19:10;31.73;;;17.48;;
37693;SDS011;23531;50.122;8.644;2024-03-08T03:21:11;30.92;;;18.00;;
37693;SDS011;23531;50.122;8.644;2024-03-08T03:23:13;36.80;;;18.48;;
37693;SDS011;23531;50.122;8.644;2024-03-08T03:25:15;31.85;;;17.40;;
37693;SDS011;23531;50.122;8.644;2024-03-08T03:27:24;37.20;;;19.27;;
37693;SDS011;23531;50.122;8.644;2024-03-08T03:29:26;35.60;;;18.27;;
37693;SDS011;23531;50.122;8.644;2024-03-08T03:31:26;32.67;;;17.63;;
37693;SDS011;23531;50.122;8.644;2024-03-08T03:33:27;37.22;;;19.05;;
37693;SDS011;23531;50.122;8.644;2024-03-08T03:35:29;32.72;;;17.65;;
37693;SDS011;23531;50.122;8.644;2024-03-08T03:37:30;35.45;;;18.33;;
37693;SDS011;23531;50.122;8.644;2024-03-08T03:39:31;39.60;;;20.55;;
37693;SDS011;23531;50.122;8.644;2024-03-08T03:41:32;35.85;;;18.67;;
37693;SDS011;23531;50.122;8.644;2024-03-08T03:43:35;32.22;;;18.67;;
37693;SDS011;23531;50.122;8.644;2024-03-08T03:45:39;33.83;;;19.80;;
37693;SDS011;23531;50.122;8.644;2024-03-08T03:47:42;37.40;;;17.90;;
37693;SDS011;23531;50.122;8.644;2024-03-08T03:49:43;35.00;;;18.38;;
37693;SDS011;23531;50.122;8.644;2024-03-08T03:51:45;37.60;;;19.23;;
37693;SDS011;23531;50.122;8.644;2024-03-08T03:53:47;36.90;;;19.35;;
37693;SDS011;23531;50.122;8.644;2024-03-08T03:55:48;33.03;;;17.45;;
37693;SDS011;23531;50.122;8.644;2024-03-08T03:57:49;35.60;;;18.58;;
37693;SDS011;23531;50.122;8.644;2024-03-08T03:59:53;35.15;;;18.50;;
37693;SDS011;23531;50.122;8.644;2024-03-08T04:01:55;37.03;;;18.60;;
37693;SDS011;23531;50.122;8.644;2024-03-08T04:03:56;35.90;;;18.67;;
37693;SDS011;23531;50.122;8.644;2024-03-08T04:05:58;34.78;;;18.35;;
37693;SDS011;23531;50.122;8.644;2024-03-08T04:07:59;38.50;;;19.17;;
37693;SDS011;23531;50.122;8.644;2024-03-08T04:10:00;37.28;;;18.83;;
37693;SDS011;23531;50.122;8.644;2024-03-08T04:12:03;36.47;;;19.83;;
37693;SDS011;23531;50.122;8.644;2024-03-08T04:14:05;35.55;;;18.42;;
37693;SDS011;23531;50.122;8.644;2024-03-08T04:16:08;36.78;;;19.33;;
37693;SDS011;23531;50.122;8.644;2024-03-08T04:18:11;35.08;;;18.55;;
37693;SDS011;23531;50.122;8.644;2024-03-08T04:20:13;34.30;;;19.17;;
37693;SDS011;23531;50.122;8.644;2024-03-08T04:22:14;39.60;;;20.48;;
37693;SDS011;23531;50.122;8.644;2024-03-08T04:24:17;34.15;;;19.08;;
37693;SDS011;23531;50.122;8.644;2024-03-08T04:26:18;37.90;;;19.50;;
37693;SDS011;23531;50.122;8.644;2024-03-08T04:28:20;39.60;;;19.08;;
37693;SDS011;23531;50.122;8.644;2024-03-08T04:30:20;34.85;;;18.88;;
37693;SDS011;23531;50.122;8.644;2024-03-08T04:32:23;38.97;;;18.90;;
37693;SDS011;23531;50.122;8.644;2024-03-08T04:34:24;33.10;;;19.05;;
37693;SDS011;23531;50.122;8.644;2024-03-08T04:36:28;37.03;;;19.08;;
37693;SDS011;23531;50.122;8.644;2024-03-08T04:38:30;33.58;;;19.15;;
37693;SDS011;23531;50.122;8.644;2024-03-08T04:40:31;33.70;;;18.40;;
37693;SDS011;23531;50.122;8.644;2024-03-08T04:42:32;37.30;;;19.75;;
37693;SDS011;23531;50.122;8.644;2024-03-08T04:44:34;35.55;;;19.00;;
37693;SDS011;23531;50.122;8.644;2024-03-08T04:46:36;36.40;;;19.45;;
37693;SDS011;23531;50.122;8.644;2024-03-08T04:48:39;37.72;;;20.38;;
37693;SDS011;23531;50.122;8.644;2024-03-08T04:50:42;42.17;;;19.50;;
37693;SDS011;23531;50.122;8.644;2024-03-08T04:52:44;39.33;;;20.42;;
37693;SDS011;23531;50.122;8.644;2024-03-08T04:54:46;38.70;;;19.75;;
37693;SDS011;23531;50.122;8.644;2024-03-08T04:56:47;39.30;;;20.17;;
37693;SDS011;23531;50.122;8.644;2024-03-08T04:58:48;35.95;;;19.02;;
37693;SDS011;23531;50.122;8.644;2024-03-08T05:00:49;38.97;;;19.38;;
37693;SDS011;23531;50.122;8.644;2024-03-08T05:02:50;36.53;;;18.98;;
37693;SDS011;23531;50.122;8.644;2024-03-08T05:04:54;37.75;;;20.38;;
37693;SDS011;23531;50.122;8.644;2024-03-08T05:06:55;38.90;;;20.38;;
37693;SDS011;23531;50.122;8.644;2024-03-08T05:08:57;41.33;;;20.52;;
37693;SDS011;23531;50.122;8.644;2024-03-08T05:10:58;39.65;;;19.30;;
37693;SDS011;23531;50.122;8.644;2024-03-08T05:13:01;37.75;;;20.77;;
37693;SDS011;23531;50.122;8.644;2024-03-08T05:15:02;35.42;;;19.40;;
37693;SDS011;23531;50.122;8.644;2024-03-08T05:17:05;39.75;;;20.42;;
37693;SDS011;23531;50.122;8.644;2024-03-08T05:19:07;37.03;;;18.77;;
37693;SDS011;23531;50.122;8.644;2024-03-08T05:21:09;40.42;;;21.58;;
37693;SDS011;23531;50.122;8.644;2024-03-08T05:23:10;39.05;;;20.13;;
37693;SDS011;23531;50.122;8.644;2024-03-08T05:25:11;37.60;;;20.25;;
37693;SDS011;23531;50.122;8.644;2024-03-08T05:27:14;37.25;;;19.63;;
37693;SDS011;23531;50.122;8.644;2024-03-08T05:29:16;36.53;;;19.10;;
37693;SDS011;23531;50.122;8.644;2024-03-08T05:31:19;36.28;;;18.70;;
37693;SDS011;23531;50.122;8.644;2024-03-08T05:33:22;39.72;;;20.88;;
37693;SDS011;23531;50.122;8.644;2024-03-08T05:35:24;41.55;;;21.05;;
37693;SDS011;23531;50.122;8.644;2024-03-08T05:37:26;35.53;;;19.73;;
37693;SDS011;23531;50.122;8.644;2024-03-08T05:39:28;45.08;;;20.90;;
37693;SDS011;23531;50.122;8.644;2024-03-08T05:41:29;39.20;;;20.65;;
37693;SDS011;23531;50.122;8.644;2024-03-08T05:43:30;40.63;;;20.80;;
37693;SDS011;23531;50.122;8.644;2024-03-08T05:45:31;43.22;;;21.40;;
37693;SDS011;23531;50.122;8.644;2024-03-08T05:47:32;41.30;;;21.38;;
37693;SDS011;23531;50.122;8.644;2024-03-08T05:49:34;40.47;;;21.50;;
37693;SDS011;23531;50.122;8.644;2024-03-08T05:51:36;42.50;;;20.17;;
37693;SDS011;23531;50.122;8.644;2024-03-08T05:53:40;41.97;;;21.73;;
37693;SDS011;23531;50.122;8.644;2024-03-08T05:55:41;40.92;;;21.10;;
37693;SDS011;23531;50.122;8.644;2024-03-08T05:57:43;43.72;;;21.35;;
37693;SDS011;23531;50.122;8.644;2024-03-08T05:59:45;43.55;;;21.60;;
37693;SDS011;23531;50.122;8.644;2024-03-08T06:01:45;39.20;;;20.90;;
37693;SDS011;23531;50.122;8.644;2024-03-08T06:03:47;40.42;;;20.58;;
37693;SDS011;23531;50.122;8.644;2024-03-08T06:05:49;38.25;;;19.77;;
37693;SDS011;23531;50.122;8.644;2024-03-08T06:07:50;41.65;;;21.33;;
37693;SDS011;23531;50.122;8.644;2024-03-08T06:09:54;42.80;;;21.92;;
37693;SDS011;23531;50.122;8.644;2024-03-08T06:11:56;39.72;;;21.67;;
37693;SDS011;23531;50.122;8.644;2024-03-08T06:13:57;42.63;;;21.73;;
37693;SDS011;23531;50.122;8.644;2024-03-08T06:16:00;41.30;;;22.80;;
37693;SDS011;23531;50.122;8.644;2024-03-08T06:18:04;41.72;;;21.75;;
37693;SDS011;23531;50.122;8.644;2024-03-08T06:20:06;39.50;;;22.30;;
37693;SDS011;23531;50.122;8.644;2024-03-08T06:22:12;43.88;;;22.48;;
37693;SDS011;23531;50.122;8.644;2024-03-08T06:24:14;40.00;;;22.00;;
37693;SDS011;23531;50.122;8.644;2024-03-08T06:26:16;39.65;;;21.23;;
37693;SDS011;23531;50.122;8.644;2024-03-08T06:28:18;38.50;;;20.55;;
37693;SDS011;23531;50.122;8.644;2024-03-08T06:30:19;39.17;;;21.23;;
37693;SDS011;23531;50.122;8.644;2024-03-08T06:32:21;39.95;;;20.80;;
37693;SDS011;23531;50.122;8.644;2024-03-08T06:34:22;38.15;;;20.92;;
37693;SDS011;23531;50.122;8.644;2024-03-08T06:36:24;38.38;;;22.40;;
37693;SDS011;23531;50.122;8.644;2024-03-08T06:38:25;43.35;;;21.40;;
37693;SDS011;23531;50.122;8.644;2024-03-08T06:40:27;37.03;;;20.92;;
37693;SDS011;23531;50.122;8.644;2024-03-08T06:42:30;37.88;;;20.25;;
37693;SDS011;23531;50.122;8.644;2024-03-08T06:44:35;44.47;;;22.27;;
37693;SDS011;23531;50.122;8.644;2024-03-08T06:46:38;40.97;;;20.33;;
37693;SDS011;23531;50.122;8.644;2024-03-08T06:48:39;36.88;;;20.40;;
37693;SDS011;23531;50.122;8.644;2024-03-08T06:50:41;43.72;;;20.92;;
37693;SDS011;23531;50.122;8.644;2024-03-08T06:52:42;39.80;;;20.48;;
37693;SDS011;23531;50.122;8.644;2024-03-08T06:54:44;43.00;;;21.38;;
37693;SDS011;23531;50.122;8.644;2024-03-08T06:56:45;41.30;;;21.33;;
37693;SDS011;23531;50.122;8.644;2024-03-08T06:58:49;39.45;;;19.95;;
37693;SDS011;23531;50.122;8.644;2024-03-08T07:00:50;41.30;;;21.77;;
37693;SDS011;23531;50.122;8.644;2024-03-08T07:02:52;41.45;;;21.45;;
37693;SDS011;23531;50.122;8.644;2024-03-08T07:04:54;62.28;;;30.00;;
37693;SDS011;23531;50.122;8.644;2024-03-08T07:06:55;48.25;;;24.60;;
37693;SDS011;23531;50.122;8.644;2024-03-08T07:08:57;43.42;;;21.85;;
37693;SDS011;23531;50.122;8.644;2024-03-08T07:10:59;37.92;;;20.75;;
37693;SDS011;23531;50.122;8.644;2024-03-08T07:13:01;42.72;;;21.25;;
37693;SDS011;23531;50.122;8.644;2024-03-08T07:15:04;38.90;;;20.73;;
37693;SDS011;23531;50.122;8.644;2024-03-08T07:17:07;42.45;;;22.10;;
37693;SDS011;23531;50.122;8.644;2024-03-08T07:19:09;39.95;;;21.45;;
37693;SDS011;23531;50.122;8.644;2024-03-08T07:21:10;39.00;;;21.55;;
37693;SDS011;23531;50.122;8.644;2024-03-08T07:23:11;42.05;;;21.33;;
37693;SDS011;23531;50.122;8.644;2024-03-08T07:25:33;39.50;;;20.83;;
37693;SDS011;23531;50.122;8.644;2024-03-08T07:27:35;43.47;;;20.23;;
37693;SDS011;23531;50.122;8.644;2024-03-08T07:29:36;37.58;;;21.08;;
37693;SDS011;23531;50.122;8.644;2024-03-08T07:31:39;40.45;;;21.08;;
37693;SDS011;23531;50.122;8.644;2024-03-08T07:33:51;42.13;;;22.77;;
37693;SDS011;23531;50.122;8.644;2024-03-08T07:35:53;40.08;;;21.70;;
37693;SDS011;23531;50.122;8.644;2024-03-08T07:37:54;38.35;;;21.50;;
37693;SDS011;23531;50.122;8.644;2024-03-08T07:39:56;38.38;;;21.38;;
37693;SDS011;23531;50.122;8.644;2024-03-08T07:41:58;41.72;;;22.05;;
37693;SDS011;23531;50.122;8.644;2024-03-08T07:43:59;40.30;;;21.52;;
37693;SDS011;23531;50.122;8.644;2024-03-08T07:46:03;40.38;;;20.65;;
37693;SDS011;23531;50.122;8.644;2024-03-08T07:48:06;39.20;;;20.88;;
37693;SDS011;23531;50.122;8.644;2024-03-08T07:50:09;45.05;;;21.95;;
37693;SDS011;23531;50.122;8.644;2024-03-08T07:52:11;38.47;;;20.67;;
37693;SDS011;23531;50.122;8.644;2024-03-08T07:54:15;41.17;;;21.60;;
37693;SDS011;23531;50.122;8.644;2024-03-08T07:56:17;41.35;;;21.77;;
37693;SDS011;23531;50.122;8.644;2024-03-08T07:58:19;36.03;;;19.02;;
37693;SDS011;23531;50.122;8.644;2024-03-08T08:00:20;41.28;;;22.42;;
37693;SDS011;23531;50.122;8.644;2024-03-08T08:02:21;39.75;;;20.27;;
37693;SDS011;23531;50.122;8.644;2024-03-08T08:04:24;37.88;;;20.50;;
37693;SDS011;23531;50.122;8.644;2024-03-08T08:06:26;40.45;;;19.40;;
37693;SDS011;23531;50.122;8.644;2024-03-08T08:08:28;35.13;;;18.25;;
37693;SDS011;23531;50.122;8.644;2024-03-08T08:10:29;39.20;;;21.55;;
37693;SDS011;23531;50.122;8.644;2024-03-08T08:12:32;33.65;;;20.80;;
37693;SDS011;23531;50.122;8.644;2024-03-08T08:14:34;35.63;;;20.67;;
37693;SDS011;23531;50.122;8.644;2024-03-08T08:16:35;36.47;;;20.85;;
37693;SDS011;23531;50.122;8.644;2024-03-08T08:18:37;34.00;;;20.60;;
37693;SDS011;23531;50.122;8.644;2024-03-08T08:20:40;35.42;;;19.77;;
37693;SDS011;23531;50.122;8.644;2024-03-08T08:22:43;35.30;;;19.88;;
37693;SDS011;23531;50.122;8.644;2024-03-08T08:24:44;34.65;;;19.33;;
37693;SDS011;23531;50.122;8.644;2024-03-08T08:26:45;35.55;;;19.80;;
37693;SDS011;23531;50.122;8.644;2024-03-08T08:28:47;35.45;;;19.55;;
37693;SDS011;23531;50.122;8.644;2024-03-08T08:30:49;38.45;;;20.92;;
37693;SDS011;23531;50.122;8.644;2024-03-08T08:32:49;40.13;;;21.55;;
37693;SDS011;23531;50.122;8.644;2024-03-08T08:34:51;37.67;;;20.58;;
37693;SDS011;23531;50.122;8.644;2024-03-08T08:36:53;36.75;;;20.90;;
37693;SDS011;23531;50.122;8.644;2024-03-08T08:38:55;31.23;;;19.35;;
37693;SDS011;23531;50.122;8.644;2024-03-08T08:40:56;34.92;;;19.88;;
37693;SDS011;23531;50.122;8.644;2024-03-08T08:42:57;35.38;;;20.33;;
37693;SDS011;23531;50.122;8.644;2024-03-08T08:44:59;36.10;;;19.38;;
37693;SDS011;23531;50.122;8.644;2024-03-08T08:47:00;35.92;;;20.70;;
37693;SDS011;23531;50.122;8.644;2024-03-08T08:49:03;33.17;;;19.70;;
37693;SDS011;23531;50.122;8.644;2024-03-08T08:51:06;33.50;;;19.20;;
37693;SDS011;23531;50.122;8.644;2024-03-08T08:53:08;36.60;;;20.42;;
37693;SDS011;23531;50.122;8.644;2024-03-08T08:55:10;32.28;;;19.08;;
37693;SDS011;23531;50.122;8.644;2024-03-08T08:57:14;37.03;;;21.05;;
37693;SDS011;23531;50.122;8.644;2024-03-08T08:59:15;33.63;;;19.60;;
37693;SDS011;23531;50.122;8.644;2024-03-08T09:01:19;34.75;;;19.65;;
37693;SDS011;23531;50.122;8.644;2024-03-08T09:03:20;33.22;;;20.23;;
37693;SDS011;23531;50.122;8.644;2024-03-08T09:05:23;33.25;;;17.90;;
37693;SDS011;23531;50.122;8.644;2024-03-08T09:07:24;33.63;;;19.77;;
37693;SDS011;23531;50.122;8.644;2024-03-08T09:09:28;36.22;;;19.85;;
37693;SDS011;23531;50.122;8.644;2024-03-08T09:11:29;34.85;;;19.25;;
37693;SDS011;23531;50.122;8.644;2024-03-08T09:13:31;36.28;;;19.98;;
37693;SDS011;23531;50.122;8.644;2024-03-08T09:15:33;31.00;;;18.52;;
37693;SDS011;23531;50.122;8.644;2024-03-08T09:17:36;32.70;;;18.20;;
37693;SDS011;23531;50.122;8.644;2024-03-08T09:19:39;33.05;;;18.45;;
37693;SDS011;23531;50.122;8.644;2024-03-08T09:21:41;30.92;;;17.52;;
37693;SDS011;23531;50.122;8.644;2024-03-08T09:23:42;32.72;;;17.80;;
37693;SDS011;23531;50.122;8.644;2024-03-08T09:25:46;31.75;;;17.48;;
37693;SDS011;23531;50.122;8.644;2024-03-08T09:27:47;32.67;;;18.65;;
37693;SDS011;23531;50.122;8.644;2024-03-08T09:29:49;32.40;;;18.27;;
37693;SDS011;23531;50.122;8.644;2024-03-08T09:31:51;31.65;;;17.42;;
37693;SDS011;23531;50.122;8.644;2024-03-08T09:33:52;32.97;;;17.80;;
37693;SDS011;23531;50.122;8.644;2024-03-08T09:35:54;30.40;;;16.70;;
37693;SDS011;23531;50.122;8.644;2024-03-08T09:37:54;30.70;;;17.20;;
37693;SDS011;23531;50.122;8.644;2024-03-08T09:39:56;29.58;;;17.50;;
37693;SDS011;23531;50.122;8.644;2024-03-08T09:42:00;34.67;;;17.48;;
37693;SDS011;23531;50.122;8.644;2024-03-08T09:44:01;32.05;;;16.42;;
37693;SDS011;23531;50.122;8.644;2024-03-08T09:46:04;30.27;;;16.05;;
37693;SDS011;23531;50.122;8.644;2024-03-08T09:48:07;28.42;;;16.02;;
37693;SDS011;23531;50.122;8.644;2024-03-08T09:50:12;26.80;;;15.13;;
37693;SDS011;23531;50.122;8.644;2024-03-08T09:52:12;29.95;;;16.42;;
37693;SDS011;23531;50.122;8.644;2024-03-08T09:54:15;29.73;;;16.90;;
37693;SDS011;23531;50.122;8.644;2024-03-08T09:56:17;25.23;;;14.32;;
37693;SDS011;23531;50.122;8.644;2024-03-08T09:58:20;26.48;;;16.20;;
37693;SDS011;23531;50.122;8.644;2024-03-08T10:00:42;26.27;;;15.75;;
37693;SDS011;23531;50.122;8.644;2024-03-08T10:02:45;27.77;;;16.08;;
37693;SDS011;23531;50.122;8.644;2024-03-08T10:04:46;25.98;;;15.20;;
37693;SDS011;23531;50.122;8.644;2024-03-08T10:06:48;26.88;;;16.17;;
37693;SDS011;23531;50.122;8.644;2024-03-08T10:08:49;27.40;;;14.93;;
37693;SDS011;23531;50.122;8.644;2024-03-08T10:10:51;30.70;;;15.30;;
37693;SDS011;23531;50.122;8.644;2024-03-08T10:12:53;27.10;;;16.30;;
37693;SDS011;23531;50.122;8.644;2024-03-08T10:14:56;26.52;;;16.08;;
37693;SDS011;23531;50.122;8.644;2024-03-08T10:16:59;25.25;;;15.65;;
37693;SDS011;23531;50.122;8.644;2024-03-08T10:19:02;27.67;;;14.98;;
37693;SDS011;23531;50.122;8.644;2024-03-08T10:21:06;23.77;;;14.88;;
37693;SDS011;23531;50.122;8.644;2024-03-08T10:23:10;27.45;;;14.60;;
37693;SDS011;23531;50.122;8.644;2024-03-08T10:25:11;27.80;;;16.20;;
37693;SDS011;23531;50.122;8.644;2024-03-08T10:27:13;28.27;;;15.68;;
37693;SDS011;23531;50.122;8.644;2024-03-08T10:29:16;24.90;;;14.45;;
37693;SDS011;23531;50.122;8.644;2024-03-08T10:31:20;24.85;;;14.98;;
37693;SDS011;23531;50.122;8.644;2024-03-08T10:33:21;25.65;;;15.73;;
37693;SDS011;23531;50.122;8.644;2024-03-08T10:35:23;23.77;;;15.30;;
37693;SDS011;23531;50.122;8.644;2024-03-08T10:37:26;23.40;;;14.38;;
37693;SDS011;23531;50.122;8.644;2024-03-08T10:39:31;26.13;;;14.60;;
37693;SDS011;23531;50.122;8.644;2024-03-08T10:41:36;22.50;;;14.40;;
37693;SDS011;23531;50.122;8.644;2024-03-08T10:43:45;23.13;;;15.02;;
37693;SDS011;23531;50.122;8.644;2024-03-08T10:48:10;25.77;;;14.13;;
37693;SDS011;23531;50.122;8.644;2024-03-08T10:50:28;28.25;;;15.50;;
37693;SDS011;23531;50.122;8.644;2024-03-08T10:52:31;27.95;;;14.82;;
37693;SDS011;23531;50.122;8.644;2024-03-08T10:54:36;25.38;;;14.52;;
37693;SDS011;23531;50.122;8.644;2024-03-08T10:56:39;25.05;;;15.02;;
37693;SDS011;23531;50.122;8.644;2024-03-08T10:58:40;27.20;;;15.43;;
37693;SDS011;23531;50.122;8.644;2024-03-08T11:00:44;24.55;;;13.82;;
37693;SDS011;23531;50.122;8.644;2024-03-08T11:02:45;21.40;;;12.73;;
37693;SDS011;23531;50.122;8.644;2024-03-08T11:04:49;24.52;;;13.23;;
37693;SDS011;23531;50.122;8.644;2024-03-08T11:06:53;19.13;;;11.70;;
37693;SDS011;23531;50.122;8.644;2024-03-08T11:09:02;21.02;;;13.05;;
37693;SDS011;23531;50.122;8.644;2024-03-08T11:11:04;22.38;;;13.00;;
37693;SDS011;23531;50.122;8.644;2024-03-08T11:13:05;24.55;;;13.40;;
37693;SDS011;23531;50.122;8.644;2024-03-08T11:15:35;26.00;;;14.88;;
37693;SDS011;23531;50.122;8.644;2024-03-08T11:17:45;23.50;;;14.30;;
37693;SDS011;23531;50.122;8.644;2024-03-08T11:19:50;21.45;;;14.05;;
37693;SDS011;23531;50.122;8.644;2024-03-08T11:21:58;23.20;;;13.75;;
37693;SDS011;23531;50.122;8.644;2024-03-08T11:23:59;22.65;;;13.50;;
37693;SDS011;23531;50.122;8.644;2024-03-08T11:26:01;20.48;;;13.07;;
37693;SDS011;23531;50.122;8.644;2024-03-08T11:28:11;24.30;;;13.65;;
37693;SDS011;23531;50.122;8.644;2024-03-08T11:30:16;23.08;;;12.90;;
37693;SDS011;23531;50.122;8.644;2024-03-08T11:32:26;20.45;;;12.75;;
37693;SDS011;23531;50.122;8.644;2024-03-08T11:34:30;20.70;;;12.20;;
37693;SDS011;23531;50.122;8.644;2024-03-08T11:36:34;20.23;;;12.57;;
37693;SDS011;23531;50.122;8.644;2024-03-08T11:38:39;21.95;;;12.77;;
37693;SDS011;23531;50.122;8.644;2024-03-08T11:40:40;24.23;;;13.70;;
37693;SDS011;23531;50.122;8.644;2024-03-08T11:42:44;19.60;;;13.07;;
37693;SDS011;23531;50.122;8.644;2024-03-08T11:44:46;21.20;;;12.70;;
37693;SDS011;23531;50.122;8.644;2024-03-08T11:46:48;19.52;;;12.07;;
37693;SDS011;23531;50.122;8.644;2024-03-08T11:48:50;21.70;;;12.10;;
37693;SDS011;23531;50.122;8.644;2024-03-08T11:50:58;17.17;;;10.65;;
37693;SDS011;23531;50.122;8.644;2024-03-08T11:53:03;19.38;;;11.23;;
37693;SDS011;23531;50.122;8.644;2024-03-08T11:55:05;21.75;;;13.38;;
37693;SDS011;23531;50.122;8.644;2024-03-08T11:57:06;21.00;;;13.77;;